Milnthorpe, United Kingdom
Current Conditions -  °F | °C
As of 8:50 AM on Monday 24 Nov 2014 (Local Time) from EGXE Reporting Station
Broken Clouds Broken Clouds  
Wind Chill: 39°   Ceiling: 17000
Heat Index: 39°   Visibility: 6mi
Dew Point: 36°   Wind: 3mph
Humidity: 87%   Direction: 190°S
Pressure: 30.21"   Gusts: NA
Location:  54.23°N, 2.77°W
Report Text: EGXE 240850Z 19003KT 9999 FEW035 BKN170 04/02 Q1023 BLU NOSIG
Loading
Personal Weather Stations






























Interactive Weather Map New forecast layout! Learn more

10-Day Weather Forecast

Advertisements
Track Severe Weather on mobile